Ridgewood, NJ (07450)

10:30 AM EDT on October 22, 2014 (GMT -0400)
Hope Street | Change Station
CLOSE
Current Station
Personal Weather Station
Location: Ridgewood, NJ
Elevation: 120 ft
Nearby Weather Stations

Elev 120 ft 40.98 °N, 74.11 °W | Updated 15 minutes ago

Overcast
Overcast
53.1 °F
Feels Like 53.1 °F
N
2.2
Wind Variable Wind from SSE

Today
High -- | Low -- °F
--% Chance of Precip.
Yesterday
High -- | Low -- °F
Precip. -- in
7:15 AM 6:05 PM
Waning Crescent, 2% visible
Pressure 29.93 in
Visibility 10.0 miles
Clouds Few 1300 ft
Overcast 3300 ft
Dew Point 53 °F
Humidity 99%
Rainfall 0.00 in
Snow Depth Not available.
UV 1 out of 12
Pollen .30 out of 12
Air Quality Not available.
Flu Activity Sporadic
METAR KTEB 221351Z 01009KT 10SM -RA FEW013 OVC033 13/10 A2993 RMK AO2 SLP134 P0001 T01280100

More Conditions Fewer Conditions

Pressure 29.93 in
Visibility 10.0 miles
Clouds Few 1300 ft
Overcast 3300 ft
Dew Point 53 °F
Humidity 99%
Rainfall 0.00 in
Snow Depth Not available.
UV 1 out of 12
Pollen .30 out of 12
Air Quality Not available.
Flu Activity Sporadic
METAR KTEB 221351Z 01009KT 10SM -RA FEW013 OVC033 13/10 A2993 RMK AO2 SLP134 P0001 T01280100

More Conditions Fewer Conditions

10-Day Weather Forecast

Almanac

Astronomy

Oct. 22, 2014 Rise Set
Actual Time 7:15 AM EDT 6:05 PM EDT
Civil Twilight 6:47 AM EDT 6:33 PM EDT
Nautical Twilight 6:15 AM EDT 7:05 PM EDT
Astronomical Twilight 5:43 AM EDT 7:37 PM EDT
Moon 5:53 AM EDT 5:31 PM EDT
Length of Visible Light 11h 45m
Length of Day
10h 49m
Tomorrow will be 2m 33s shorter.
Waning Crescent, 2% of the Moon is Illuminated
Today
Waning Crescent
Oct 23
New
Oct 30
First Quarter
Nov 6
Full
Nov 14
Last Quarter

Today's Extremes

State Highs State Lows

Community

WunderPhotos

Upload Photos

1,763,935 photos uploaded!

WunderBlogs® & News

Nearby

Snow Depth

Station Depth Elevation
No new snow has been reported.

Earthquake Activity

City Distance Mag. Time & Date
No recent earthquake activity has been reported nearby.
Minimum magnitude displayed is 2.5.

Coastal Water Temperatures

Place Temperature
Kings Point, NY 61.0 °F
Bridgeport, CT 62.1 °F

Nearby Weather Stations